Time;durP1;ratioP1;P1;durP2;ratioP2;P2;SDS_P1;SDS_P2;PMS_P1;PMS_P2;Temp;Humidity;BMP_temperature;BMP_pressure;BME280_temperature;BME280_humidity;BME280_pressure;Samples;Min_cycle;Max_cycle;Signal;HPM_P1;HPM_P2
2021/10/11 00:01:37;;;;;;;1.63;0.93;;;18.70;45.20;;;;;;5078324;28;20799;-41
2021/10/11 00:04:08;;;;;;;0.88;0.80;;;18.70;45.10;;;;;;5086064;28;20241;-42
2021/10/11 00:06:38;;;;;;;1.08;0.88;;;18.70;45.00;;;;;;5072755;28;20624;-48
2021/10/11 00:09:11;;;;;;;1.13;0.85;;;18.70;44.90;;;;;;5072939;28;20303;-51
2021/10/11 00:11:41;;;;;;;1.35;0.88;;;18.70;45.00;;;;;;5069563;28;20234;-47
2021/10/11 00:14:12;;;;;;;1.65;0.75;;;18.70;45.20;;;;;;5087306;28;20236;-48
2021/10/11 00:16:42;;;;;;;0.85;0.80;;;18.70;45.20;;;;;;5073568;28;20226;-53
2021/10/11 00:19:13;;;;;;;1.17;0.60;;;18.70;45.30;;;;;;5069856;28;20242;-51
2021/10/11 00:21:43;;;;;;;1.08;0.60;;;18.70;45.30;;;;;;5070493;28;20618;-45
2021/10/11 00:24:15;;;;;;;1.55;0.50;;;18.70;45.30;;;;;;5070599;28;20278;-42
2021/10/11 00:26:46;;;;;;;0.90;0.50;;;18.70;45.20;;;;;;5068316;28;20231;-50
2021/10/11 00:29:16;;;;;;;1.30;0.63;;;18.70;45.10;;;;;;5079683;28;20222;-49
2021/10/11 00:31:47;;;;;;;1.65;0.50;;;18.70;45.30;;;;;;5087583;28;20233;-49
2021/10/11 00:34:17;;;;;;;0.75;0.60;;;18.70;45.30;;;;;;5077787;28;20304;-49
2021/10/11 00:36:48;;;;;;;1.50;0.40;;;18.70;45.20;;;;;;5090506;28;20226;-47
2021/10/11 00:39:20;;;;;;;0.43;0.43;;;18.70;45.10;;;;;;5079283;28;20310;-52
2021/10/11 00:41:51;;;;;;;1.48;0.50;;;18.70;45.10;;;;;;5077200;28;20659;-52
2021/10/11 00:44:21;;;;;;;0.47;0.40;;;18.70;45.10;;;;;;5078582;28;20411;-50
2021/10/11 00:46:52;;;;;;;2.25;0.80;;;18.70;45.10;;;;;;5076197;28;20253;-52
2021/10/11 00:49:22;;;;;;;0.50;0.50;;;18.70;45.10;;;;;;5076395;28;20271;-45
2021/10/11 00:51:53;;;;;;;1.58;0.50;;;18.70;45.10;;;;;;5076277;28;20689;-47
2021/10/11 00:54:26;;;;;;;0.73;0.45;;;18.70;45.00;;;;;;5092461;28;20655;-45
2021/10/11 00:56:56;;;;;;;0.40;0.40;;;18.70;45.20;;;;;;5091936;28;20233;-50
2021/10/11 00:59:27;;;;;;;0.40;0.40;;;18.70;45.30;;;;;;5074953;28;20306;-46
2021/10/11 01:01:57;;;;;;;0.80;0.30;;;18.70;45.10;;;;;;5075977;28;20282;-47
2021/10/11 01:04:28;;;;;;;0.43;0.40;;;18.70;45.00;;;;;;5079796;28;20226;-47
2021/10/11 01:06:58;;;;;;;0.70;0.40;;;18.70;45.30;;;;;;5077726;28;20231;-51
2021/10/11 01:09:31;;;;;;;0.85;0.50;;;18.80;45.30;;;;;;5089310;28;20257;-51
2021/10/11 01:12:01;;;;;;;0.98;0.40;;;18.70;45.20;;;;;;5090605;28;20237;-47
2021/10/11 01:14:32;;;;;;;0.70;0.40;;;18.70;45.20;;;;;;5090456;28;20285;-45
2021/10/11 01:17:02;;;;;;;0.40;0.40;;;18.70;45.00;;;;;;5090013;28;20949;-47
2021/10/11 01:19:33;;;;;;;0.35;0.35;;;18.80;45.00;;;;;;5087046;28;20250;-52
2021/10/11 01:22:05;;;;;;;0.43;0.40;;;18.80;45.00;;;;;;5087747;28;20223;-45
2021/10/11 01:24:36;;;;;;;0.40;0.40;;;18.70;44.90;;;;;;5077305;28;20232;-48
2021/10/11 01:27:06;;;;;;;0.35;0.35;;;18.70;45.00;;;;;;5076699;28;20294;-48
2021/10/11 01:29:37;;;;;;;0.75;0.40;;;18.70;44.90;;;;;;5088347;28;20657;-47
2021/10/11 01:32:08;;;;;;;0.40;0.40;;;18.70;45.10;;;;;;5074864;28;20230;-50
2021/10/11 01:34:39;;;;;;;0.63;0.30;;;18.70;45.10;;;;;;5077065;28;20289;-47
2021/10/11 01:37:11;;;;;;;0.40;0.40;;;18.70;45.30;;;;;;5090912;28;20225;-44
2021/10/11 01:39:41;;;;;;;0.65;0.40;;;18.70;45.30;;;;;;5091763;28;20310;-47
2021/10/11 01:42:12;;;;;;;0.70;0.38;;;18.70;45.50;;;;;;5090041;28;20198;-49
2021/10/11 01:44:44;;;;;;;0.63;0.60;;;18.80;45.60;;;;;;5079370;28;20609;-45
2021/10/11 01:47:14;;;;;;;0.63;0.40;;;18.80;45.60;;;;;;5086962;28;20245;-45
2021/10/11 01:49:45;;;;;;;0.70;0.40;;;18.80;45.70;;;;;;5080539;28;20273;-46
2021/10/11 01:52:17;;;;;;;0.43;0.40;;;18.80;45.80;;;;;;5075559;28;20234;-46
2021/10/11 01:54:48;;;;;;;1.33;0.40;;;18.80;45.70;;;;;;5082012;28;20226;-46
2021/10/11 01:57:18;;;;;;;0.40;0.40;;;18.80;45.80;;;;;;5090354;28;20226;-48
2021/10/11 01:59:49;;;;;;;0.40;0.40;;;18.80;45.70;;;;;;5087050;28;20230;-49
2021/10/11 02:02:19;;;;;;;0.57;0.45;;;18.80;45.80;;;;;;5080403;28;20248;-46
2021/10/11 02:04:50;;;;;;;1.05;0.30;;;18.80;45.90;;;;;;5072787;28;20229;-44
2021/10/11 02:07:22;;;;;;;0.93;0.57;;;18.80;45.90;;;;;;5072168;28;20231;-48
2021/10/11 02:09:52;;;;;;;0.73;0.40;;;18.80;46.00;;;;;;5071838;28;20787;-48
2021/10/11 02:12:23;;;;;;;0.63;0.30;;;18.80;46.00;;;;;;5072875;28;20238;-46
2021/10/11 02:14:53;;;;;;;0.65;0.43;;;18.80;46.00;;;;;;5070156;28;20669;-42
2021/10/11 02:17:24;;;;;;;1.05;0.43;;;18.80;46.10;;;;;;5075260;28;20677;-45
2021/10/11 02:19:54;;;;;;;0.50;0.50;;;18.80;46.00;;;;;;5073206;28;20280;-44
2021/10/11 02:22:27;;;;;;;0.38;0.38;;;18.80;46.10;;;;;;5075416;28;20297;-46
2021/10/11 02:24:58;;;;;;;0.63;0.50;;;18.80;46.10;;;;;;5074302;28;20238;-49
2021/10/11 02:27:28;;;;;;;0.60;0.40;;;18.80;46.10;;;;;;5074434;28;20198;-46
2021/10/11 02:29:58;;;;;;;0.32;0.32;;;18.80;46.10;;;;;;5079106;28;20254;-50
2021/10/11 02:32:29;;;;;;;0.32;0.32;;;18.80;46.10;;;;;;5079984;28;20285;-47
2021/10/11 02:35:00;;;;;;;0.90;0.50;;;18.80;46.10;;;;;;5089376;28;20198;-44
2021/10/11 02:37:32;;;;;;;1.45;0.47;;;18.80;46.00;;;;;;5087575;28;20219;-45
2021/10/11 02:40:02;;;;;;;0.50;0.40;;;18.80;46.00;;;;;;5074956;28;20785;-44
2021/10/11 02:42:33;;;;;;;0.68;0.50;;;18.80;45.90;;;;;;5090255;28;20229;-44
2021/10/11 02:45:03;;;;;;;2.95;0.47;;;18.80;45.90;;;;;;5079142;28;20640;-47
2021/10/11 02:47:34;;;;;;;0.80;0.60;;;18.80;46.00;;;;;;5072395;28;20237;-42
2021/10/11 02:50:05;;;;;;;0.75;0.40;;;18.80;45.90;;;;;;5073027;28;20310;-46
2021/10/11 02:52:37;;;;;;;1.60;0.40;;;18.80;45.90;;;;;;5074720;28;20286;-48
2021/10/11 02:55:08;;;;;;;0.43;0.30;;;18.80;45.90;;;;;;5088156;28;20334;-46
2021/10/11 02:57:39;;;;;;;1.45;0.47;;;18.80;46.00;;;;;;5075822;28;20233;-47
2021/10/11 03:00:10;;;;;;;0.50;0.40;;;18.80;46.00;;;;;;5074404;28;20697;-49
2021/10/11 03:02:41;;;;;;;0.32;0.30;;;18.80;46.00;;;;;;5084086;28;20234;-49
2021/10/11 03:05:11;;;;;;;0.30;0.30;;;18.80;46.10;;;;;;5080363;28;20286;-49
2021/10/11 03:07:44;;;;;;;1.50;0.43;;;18.80;46.10;;;;;;5074024;28;20626;-47
2021/10/11 03:10:14;;;;;;;1.15;0.35;;;18.80;46.30;;;;;;5065471;28;20346;-47
2021/10/11 03:12:45;;;;;;;0.93;0.40;;;18.80;46.30;;;;;;5070476;28;20226;-41
2021/10/11 03:15:15;;;;;;;0.40;0.40;;;18.80;46.30;;;;;;5076584;28;20631;-45
2021/10/11 03:17:45;;;;;;;0.40;0.40;;;18.80;46.40;;;;;;5070924;28;20222;-47
2021/10/11 03:20:16;;;;;;;0.70;0.50;;;18.80;46.40;;;;;;5070117;28;20342;-46
2021/10/11 03:22:48;;;;;;;1.73;0.50;;;18.80;46.40;;;;;;5071987;28;20230;-46
2021/10/11 03:25:19;;;;;;;0.95;0.55;;;18.80;46.40;;;;;;5072503;28;20286;-46
2021/10/11 03:27:49;;;;;;;0.60;0.40;;;18.80;46.40;;;;;;5071127;28;20290;-45
2021/10/11 03:30:20;;;;;;;0.40;0.40;;;18.80;46.30;;;;;;5083543;28;20309;-48
2021/10/11 03:32:50;;;;;;;0.45;0.45;;;18.80;46.40;;;;;;5086311;28;20249;-47
2021/10/11 03:35:21;;;;;;;0.90;0.50;;;18.80;46.40;;;;;;5076974;28;20229;-44
2021/10/11 03:37:54;;;;;;;0.35;0.30;;;18.80;46.40;;;;;;5072867;28;20199;-48
2021/10/11 03:40:24;;;;;;;1.85;0.47;;;18.80;46.40;;;;;;5073256;28;20223;-46
2021/10/11 03:42:55;;;;;;;0.40;0.38;;;18.80;46.40;;;;;;5073514;28;20717;-45
2021/10/11 03:45:25;;;;;;;0.82;0.43;;;18.80;46.50;;;;;;5075333;28;20238;-49
2021/10/11 03:47:56;;;;;;;0.50;0.50;;;18.80;46.50;;;;;;5066675;28;20290;-42
2021/10/11 03:50:26;;;;;;;0.60;0.40;;;18.80;46.60;;;;;;5070510;28;20305;-48
2021/10/11 03:52:58;;;;;;;0.32;0.32;;;18.80;46.60;;;;;;5072924;28;20281;-43
2021/10/11 03:55:29;;;;;;;0.50;0.50;;;18.90;46.60;;;;;;5072073;28;20285;-42
2021/10/11 03:57:59;;;;;;;0.40;0.40;;;18.90;46.70;;;;;;5085396;28;20281;-43
2021/10/11 04:00:30;;;;;;;0.47;0.30;;;18.90;46.70;;;;;;5088564;28;20305;-47
2021/10/11 04:03:03;;;;;;;0.65;0.30;;;18.90;46.70;;;;;;5070641;28;20285;-42
2021/10/11 04:05:33;;;;;;;0.60;0.32;;;18.90;46.70;;;;;;5083788;28;20198;-46
2021/10/11 04:08:10;;;;;;;0.47;0.47;;;18.90;46.60;;;;;;5069354;28;20673;-43
2021/10/11 04:10:48;;;;;;;0.40;0.30;;;18.90;46.60;;;;;;5080857;28;20322;-45
2021/10/11 04:13:21;;;;;;;0.40;0.40;;;18.90;46.60;;;;;;5080965;28;20233;-48
2021/10/11 04:15:52;;;;;;;0.30;0.30;;;18.90;46.60;;;;;;5090402;28;20202;-46
2021/10/11 04:18:22;;;;;;;2.50;0.70;;;18.90;46.70;;;;;;5082736;28;20282;-45
2021/10/11 04:21:14;;;;;;;0.30;0.30;;;18.90;46.80;;;;;;5076181;28;20289;-51
2021/10/11 04:23:51;;;;;;;1.27;0.40;;;18.90;46.90;;;;;;5074004;28;20259;-44
2021/10/11 04:26:21;;;;;;;2.45;0.60;;;18.90;46.90;;;;;;5075142;28;20601;-44
2021/10/11 04:28:52;;;;;;;0.70;0.68;;;18.90;46.80;;;;;;5073965;28;20250;-47
2021/10/11 04:31:22;;;;;;;0.40;0.40;;;19.00;46.90;;;;;;5083605;28;20724;-43
2021/10/11 04:33:53;;;;;;;0.93;0.43;;;18.90;46.90;;;;;;5072561;28;20289;-44
2021/10/11 04:36:25;;;;;;;0.43;0.30;;;18.90;46.70;;;;;;5074161;28;20241;-48
2021/10/11 04:38:57;;;;;;;1.08;0.43;;;19.00;46.80;;;;;;5077784;28;20217;-42
2021/10/11 04:41:28;;;;;;;0.40;0.40;;;18.90;46.70;;;;;;5074396;28;20291;-45
2021/10/11 04:43:58;;;;;;;0.88;0.50;;;19.00;46.80;;;;;;5090735;28;20677;-46
2021/10/11 04:46:28;;;;;;;1.73;0.60;;;19.00;46.90;;;;;;5074937;28;20285;-46
2021/10/11 04:48:59;;;;;;;2.20;0.70;;;19.00;46.80;;;;;;5092771;28;20260;-46
2021/10/11 04:51:29;;;;;;;1.55;0.40;;;19.00;46.80;;;;;;5091054;28;20254;-46
2021/10/11 04:54:02;;;;;;;1.65;0.50;;;19.00;46.80;;;;;;5076873;28;20290;-42
2021/10/11 04:56:32;;;;;;;0.73;0.60;;;19.00;46.80;;;;;;5076667;28;20261;-40
2021/10/11 04:59:03;;;;;;;0.68;0.52;;;19.00;46.80;;;;;;5087932;28;20253;-42
2021/10/11 05:01:33;;;;;;;0.52;0.50;;;19.00;46.80;;;;;;5080836;28;20242;-41
2021/10/11 05:04:04;;;;;;;0.55;0.55;;;19.00;46.80;;;;;;5076676;28;20291;-40
2021/10/11 05:06:34;;;;;;;0.60;0.40;;;19.00;47.00;;;;;;5073764;28;20298;-42
2021/10/11 05:09:06;;;;;;;1.73;0.52;;;19.00;47.00;;;;;;5075564;28;20301;-44
2021/10/11 05:11:37;;;;;;;1.67;0.60;;;19.00;47.10;;;;;;5073487;28;20253;-41
2021/10/11 05:14:07;;;;;;;0.55;0.40;;;19.00;47.10;;;;;;5073776;28;20851;-42
2021/10/11 05:16:38;;;;;;;0.95;0.70;;;19.00;47.10;;;;;;5072482;28;20322;-41
2021/10/11 05:19:10;;;;;;;1.63;0.60;;;19.00;47.10;;;;;;5075260;28;20260;-40
2021/10/11 05:21:40;;;;;;;0.52;0.45;;;19.10;47.20;;;;;;5087941;28;20706;-45
2021/10/11 05:24:12;;;;;;;0.65;0.50;;;19.00;47.10;;;;;;5076425;28;20290;-47
2021/10/11 05:26:43;;;;;;;2.30;0.73;;;19.00;47.10;;;;;;5075078;28;20301;-42
2021/10/11 05:29:13;;;;;;;0.40;0.40;;;19.00;47.10;;;;;;5079399;28;20253;-48
2021/10/11 05:31:44;;;;;;;0.65;0.57;;;19.10;47.20;;;;;;5082991;28;20257;-48
2021/10/11 05:34:14;;;;;;;2.10;0.60;;;19.10;47.20;;;;;;5077301;28;20245;-46
2021/10/11 05:36:46;;;;;;;0.80;0.52;;;19.10;47.20;;;;;;5089528;28;20660;-48
2021/10/11 05:39:18;;;;;;;0.85;0.50;;;19.10;47.40;;;;;;5079808;28;20281;-45
2021/10/11 05:41:48;;;;;;;0.47;0.47;;;19.10;47.50;;;;;;5075886;28;20291;-48
2021/10/11 05:44:19;;;;;;;0.50;0.50;;;19.10;47.60;;;;;;5080476;28;20231;-44
2021/10/11 05:46:49;;;;;;;1.05;0.50;;;19.10;47.60;;;;;;5078233;28;20682;-43
2021/10/11 05:49:20;;;;;;;1.10;0.68;;;19.10;47.60;;;;;;5078305;28;20926;-46
2021/10/11 05:51:50;;;;;;;0.63;0.50;;;19.10;47.70;;;;;;5073614;28;20261;-43
2021/10/11 05:54:23;;;;;;;0.90;0.90;;;19.10;47.70;;;;;;5076912;28;20309;-50
2021/10/11 05:56:53;;;;;;;0.77;0.73;;;19.10;47.80;;;;;;5073244;28;20289;-47
2021/10/11 05:59:24;;;;;;;0.80;0.75;;;19.10;47.70;;;;;;5070961;28;20713;-48
2021/10/11 06:01:54;;;;;;;2.08;1.88;;;19.10;47.70;;;;;;5067266;28;20285;-48
2021/10/11 06:04:25;;;;;;;1.75;1.60;;;19.20;47.90;;;;;;5090865;28;20279;-50
2021/10/11 06:06:55;;;;;;;1.40;1.30;;;19.20;48.00;;;;;;5088783;28;20290;-45
2021/10/11 06:09:28;;;;;;;2.45;1.63;;;19.20;48.00;;;;;;5088815;28;20658;-48
2021/10/11 06:11:58;;;;;;;1.88;1.40;;;19.10;48.00;;;;;;5087650;28;20261;-47
2021/10/11 06:14:29;;;;;;;2.20;1.42;;;19.20;48.00;;;;;;5080123;28;20274;-48
2021/10/11 06:16:59;;;;;;;1.27;1.08;;;19.10;48.00;;;;;;5074425;28;21024;-49
2021/10/11 06:19:29;;;;;;;1.48;1.35;;;19.20;48.00;;;;;;5068653;28;20301;-44
2021/10/11 06:22:00;;;;;;;2.40;1.50;;;19.20;48.00;;;;;;5076100;28;20234;-47
2021/10/11 06:24:32;;;;;;;2.33;1.30;;;19.10;47.90;;;;;;5076839;28;20716;-47
2021/10/11 06:27:03;;;;;;;2.05;1.40;;;19.20;48.00;;;;;;5086576;28;20241;-46
2021/10/11 06:30:15;;;;;;;1.77;1.00;;;19.10;47.90;;;;;;5074626;28;20218;-48
2021/10/11 06:32:47;;;;;;;1.08;0.98;;;19.10;47.90;;;;;;5070541;28;20223;-44
2021/10/11 06:35:17;;;;;;;1.85;1.20;;;19.20;48.00;;;;;;5074362;28;20191;-45
2021/10/11 06:37:49;;;;;;;1.30;1.20;;;19.10;47.90;;;;;;5074107;28;20623;-49
2021/10/11 06:40:22;;;;;;;3.92;3.05;;;19.10;48.00;;;;;;5073621;28;20268;-53
2021/10/11 06:42:52;;;;;;;4.28;3.88;;;19.10;48.40;;;;;;5067158;28;20637;-60
2021/10/11 06:45:23;;;;;;;1.95;1.85;;;19.10;48.70;;;;;;5089427;28;20282;-51
2021/10/11 06:47:53;;;;;;;1.95;1.70;;;19.20;48.00;;;;;;5069241;28;20780;-45
2021/10/11 06:50:24;;;;;;;1.95;1.75;;;19.20;47.60;;;;;;5081310;28;20271;-43
2021/10/11 06:52:54;;;;;;;3.00;2.67;;;19.10;47.40;;;;;;5076816;28;20314;-50
2021/10/11 06:55:26;;;;;;;2.90;2.63;;;19.10;47.40;;;;;;5074288;28;20239;-47
2021/10/11 06:58:03;;;;;;;2.75;2.13;;;19.10;47.50;;;;;;5072090;28;20238;-44
2021/10/11 07:00:34;;;;;;;3.53;2.03;;;19.10;47.40;;;;;;5074549;28;20214;-44
2021/10/11 07:03:05;;;;;;;3.05;2.28;;;19.10;47.40;;;;;;5073675;28;20230;-46
2021/10/11 07:05:36;;;;;;;3.60;2.65;;;19.10;47.40;;;;;;5073976;28;20581;-44
2021/10/11 07:08:10;;;;;;;2.35;2.15;;;19.10;47.40;;;;;;5070647;28;20202;-44
2021/10/11 07:10:43;;;;;;;2.50;2.25;;;19.10;47.40;;;;;;5078124;28;20218;-45
2021/10/11 07:13:13;;;;;;;3.17;2.13;;;19.10;47.50;;;;;;5083587;28;20225;-45
2021/10/11 07:15:44;;;;;;;2.10;1.90;;;19.10;47.40;;;;;;5071477;28;20739;-49
2021/10/11 07:18:15;;;;;;;4.05;2.08;;;19.10;47.50;;;;;;5072952;28;20202;-47
2021/10/11 07:20:45;;;;;;;2.00;1.80;;;19.00;48.10;;;;;;5072999;28;20210;-50
2021/10/11 07:23:17;;;;;;;2.00;1.90;;;19.00;47.50;;;;;;5091028;28;20224;-48
2021/10/11 07:25:49;;;;;;;2.33;1.45;;;19.00;47.50;;;;;;5085354;28;20195;-48
2021/10/11 07:28:20;;;;;;;1.90;1.77;;;19.00;47.50;;;;;;5073669;28;20210;-49
2021/10/11 07:30:50;;;;;;;2.00;1.90;;;19.00;47.50;;;;;;5082814;28;20237;-50
2021/10/11 07:33:21;;;;;;;1.67;1.58;;;19.10;47.60;;;;;;5074230;28;20745;-50
2021/10/11 07:35:52;;;;;;;1.73;1.45;;;19.10;47.60;;;;;;5085690;28;20232;-47
2021/10/11 07:38:23;;;;;;;2.00;1.80;;;19.10;47.60;;;;;;5076572;28;20230;-48
2021/10/11 07:40:57;;;;;;;3.30;1.48;;;19.00;47.60;;;;;;5068942;28;20286;-49
2021/10/11 07:43:28;;;;;;;1.85;1.60;;;19.00;47.60;;;;;;5072629;28;20237;-49
2021/10/11 07:46:03;;;;;;;1.50;1.40;;;19.00;47.60;;;;;;5080345;28;20289;-44
2021/10/11 07:48:33;;;;;;;1.60;1.50;;;19.10;47.70;;;;;;5079256;28;20221;-45
2021/10/11 07:51:04;;;;;;;2.35;1.33;;;19.10;47.70;;;;;;5078544;28;20233;-46
2021/10/11 07:53:34;;;;;;;1.65;1.55;;;19.00;47.60;;;;;;5085680;28;20254;-48
2021/10/11 07:56:07;;;;;;;1.70;1.60;;;19.00;47.60;;;;;;5072869;28;20230;-45
2021/10/11 07:58:37;;;;;;;1.92;1.58;;;19.00;47.70;;;;;;5072891;28;20625;-44
2021/10/11 08:01:08;;;;;;;1.50;1.40;;;19.00;47.80;;;;;;5079307;28;20275;-49
2021/10/11 08:03:38;;;;;;;1.35;1.15;;;19.00;47.80;;;;;;5071271;28;20238;-44
2021/10/11 08:06:09;;;;;;;1.33;1.23;;;19.00;47.80;;;;;;5076684;28;20194;-48
2021/10/11 08:08:39;;;;;;;1.70;1.55;;;19.00;47.90;;;;;;5070244;28;20460;-48
2021/10/11 08:11:12;;;;;;;1.42;1.10;;;19.00;48.00;;;;;;5072006;28;20245;-43
2021/10/11 08:13:42;;;;;;;1.65;1.55;;;19.00;48.00;;;;;;5077858;28;20245;-47
2021/10/11 08:16:13;;;;;;;1.58;1.45;;;19.00;48.00;;;;;;5072620;28;20288;-46
2021/10/11 08:18:43;;;;;;;2.20;1.40;;;19.00;48.10;;;;;;5074128;28;20659;-43
2021/10/11 08:21:14;;;;;;;1.52;1.42;;;19.00;48.10;;;;;;5075523;28;20242;-50
2021/10/11 08:23:44;;;;;;;1.80;1.50;;;19.00;48.10;;;;;;5080001;28;20233;-43
2021/10/11 08:26:16;;;;;;;2.45;1.20;;;19.00;48.10;;;;;;5082173;28;20976;-47
2021/10/11 08:28:47;;;;;;;1.38;1.20;;;19.00;48.20;;;;;;5068190;28;20287;-47
2021/10/11 08:31:17;;;;;;;1.25;1.15;;;19.00;48.10;;;;;;5081019;28;20237;-45
2021/10/11 08:33:48;;;;;;;2.47;1.40;;;19.00;48.10;;;;;;5070244;28;20321;-48
2021/10/11 08:36:19;;;;;;;1.63;1.40;;;19.00;48.10;;;;;;5073497;28;20269;-47
2021/10/11 08:38:49;;;;;;;1.98;1.30;;;19.00;48.10;;;;;;5072870;28;20288;-49
2021/10/11 08:41:22;;;;;;;1.88;1.20;;;19.00;48.20;;;;;;5066638;28;20237;-44
2021/10/11 08:43:52;;;;;;;1.15;1.10;;;19.00;48.20;;;;;;5071759;28;20238;-44
2021/10/11 08:46:23;;;;;;;2.08;1.45;;;19.00;48.20;;;;;;5084122;28;20241;-48
2021/10/11 08:48:53;;;;;;;1.38;1.27;;;19.00;48.20;;;;;;5079457;28;20218;-48
2021/10/11 08:51:24;;;;;;;1.25;1.15;;;18.90;48.10;;;;;;5073498;28;20661;-46
2021/10/11 08:53:55;;;;;;;1.20;1.10;;;19.00;48.20;;;;;;5082970;28;20708;-45
2021/10/11 08:56:27;;;;;;;1.42;1.17;;;19.00;48.20;;;;;;5087400;28;20277;-42
2021/10/11 08:58:58;;;;;;;1.52;1.20;;;18.90;48.20;;;;;;5090368;28;20295;-47
2021/10/11 09:01:28;;;;;;;1.30;1.13;;;18.90;48.10;;;;;;5081907;28;20689;-45
2021/10/11 09:03:58;;;;;;;1.20;1.10;;;19.00;48.20;;;;;;5081152;28;20226;-49
2021/10/11 09:06:29;;;;;;;1.20;1.10;;;18.90;48.10;;;;;;5090568;28;20277;-45
2021/10/11 09:09:12;;;;;;;1.40;1.30;;;18.90;48.20;;;;;;5076339;28;20250;-44
2021/10/11 09:11:46;;;;;;;1.15;1.10;;;18.90;48.20;;;;;;5074854;28;20214;-46
2021/10/11 09:14:23;;;;;;;1.30;1.20;;;18.90;48.10;;;;;;5073909;28;20217;-43
2021/10/11 09:17:03;;;;;;;1.10;1.05;;;18.90;48.20;;;;;;5088046;28;20248;-47
2021/10/11 09:19:39;;;;;;;1.05;0.95;;;18.90;48.10;;;;;;5078512;28;20264;-44
2021/10/11 09:22:10;;;;;;;1.70;1.25;;;18.90;48.10;;;;;;5090469;28;20284;-41
2021/10/11 09:24:47;;;;;;;1.30;1.20;;;18.90;48.10;;;;;;5072237;28;20293;-48
2021/10/11 09:27:19;;;;;;;1.52;1.27;;;18.90;48.20;;;;;;5091350;28;20272;-47
2021/10/11 09:29:50;;;;;;;1.10;1.00;;;18.90;48.20;;;;;;5075887;28;20302;-47
2021/10/11 09:32:20;;;;;;;1.02;1.00;;;18.90;48.20;;;;;;5091091;28;20308;-46
2021/10/11 09:34:51;;;;;;;1.70;1.10;;;18.90;48.20;;;;;;5077759;28;20238;-45
2021/10/11 09:37:21;;;;;;;1.30;1.20;;;18.90;48.20;;;;;;5076007;28;20238;-43
2021/10/11 09:40:01;;;;;;;1.42;1.33;;;18.80;48.20;;;;;;5075152;28;20250;-44
2021/10/11 09:42:34;;;;;;;1.75;1.27;;;18.90;48.20;;;;;;5074773;28;20210;-44
2021/10/11 09:45:08;;;;;;;2.45;1.60;;;18.80;48.20;;;;;;5075590;28;20202;-45
2021/10/11 09:47:39;;;;;;;2.33;1.50;;;18.90;48.20;;;;;;5083752;28;20614;-46
2021/10/11 09:50:12;;;;;;;1.30;1.20;;;18.90;48.20;;;;;;5077762;28;20224;-46
2021/10/11 09:52:44;;;;;;;1.75;1.40;;;18.80;48.20;;;;;;5087152;28;20221;-44
2021/10/11 09:55:16;;;;;;;1.92;1.23;;;18.80;48.20;;;;;;5086481;28;20230;-47
2021/10/11 09:57:49;;;;;;;1.42;1.23;;;18.80;48.20;;;;;;5077290;28;20289;-43
2021/10/11 10:00:20;;;;;;;1.45;1.27;;;18.80;48.20;;;;;;5075071;28;20265;-43
2021/10/11 10:02:50;;;;;;;2.13;1.58;;;18.80;48.30;;;;;;5086271;28;20294;-49
2021/10/11 10:05:33;;;;;;;3.10;1.60;;;18.80;48.30;;;;;;5074123;28;20255;-46
2021/10/11 10:08:06;;;;;;;1.88;1.48;;;18.80;48.20;;;;;;5076001;28;20271;-45
2021/10/11 10:10:37;;;;;;;2.95;1.63;;;18.80;48.20;;;;;;5072821;28;20215;-45
2021/10/11 10:13:20;;;;;;;2.22;1.33;;;18.80;48.30;;;;;;5071441;28;20309;-45
2021/10/11 10:15:51;;;;;;;1.85;1.60;;;18.80;48.30;;;;;;5068799;28;20226;-46
2021/10/11 10:18:22;;;;;;;2.33;1.50;;;18.70;48.20;;;;;;5073323;28;20282;-45
2021/10/11 10:20:57;;;;;;;1.70;1.50;;;18.70;48.20;;;;;;5073301;28;20309;-45
2021/10/11 10:23:29;;;;;;;1.80;1.35;;;18.70;48.30;;;;;;5075162;28;20285;-45
2021/10/11 10:26:00;;;;;;;2.05;1.50;;;18.70;48.40;;;;;;5077515;28;20226;-44
2021/10/11 10:28:44;;;;;;;1.70;1.60;;;18.70;48.40;;;;;;5074973;28;20644;-45
2021/10/11 10:31:27;;;;;;;2.60;1.60;;;18.70;48.40;;;;;;5075240;28;20230;-46
2021/10/11 10:33:58;;;;;;;2.65;1.73;;;18.70;48.40;;;;;;5076275;28;20230;-42
2021/10/11 10:36:30;;;;;;;2.25;1.63;;;18.70;48.40;;;;;;5078671;28;20285;-45
2021/10/11 10:39:07;;;;;;;3.20;1.77;;;18.70;48.40;;;;;;5075685;28;20689;-43
2021/10/11 10:41:39;;;;;;;1.65;1.20;;;18.70;48.50;;;;;;5074415;28;20194;-45
2021/10/11 10:44:20;;;;;;;2.25;1.30;;;18.70;48.50;;;;;;5082009;28;20229;-44
2021/10/11 10:46:55;;;;;;;2.15;1.73;;;18.70;48.50;;;;;;5084003;28;20202;-49
2021/10/11 10:49:34;;;;;;;1.80;1.50;;;18.70;48.50;;;;;;5067098;28;20242;-48
2021/10/11 10:52:13;;;;;;;2.05;1.50;;;18.70;48.50;;;;;;5070435;28;20255;-42
2021/10/11 10:54:44;;;;;;;2.38;1.67;;;18.70;48.50;;;;;;5080106;28;20726;-41
2021/10/11 10:57:20;;;;;;;2.55;1.80;;;18.70;48.50;;;;;;5079308;28;20226;-42
2021/10/11 10:59:56;;;;;;;2.10;1.55;;;18.60;48.50;;;;;;5079831;28;20249;-45
2021/10/11 11:02:28;;;;;;;1.48;1.30;;;18.60;48.50;;;;;;5083995;28;20241;-43
2021/10/11 11:05:00;;;;;;;1.77;1.30;;;18.60;48.60;;;;;;5075408;28;20194;-42
2021/10/11 11:07:32;;;;;;;1.85;1.42;;;18.60;48.70;;;;;;5073626;28;20255;-42
2021/10/11 11:10:05;;;;;;;3.00;1.60;;;18.60;48.70;;;;;;5070984;28;20214;-42
2021/10/11 11:12:38;;;;;;;2.08;1.60;;;18.60;48.70;;;;;;5074730;28;20289;-43
2021/10/11 11:15:13;;;;;;;2.90;1.75;;;18.60;48.80;;;;;;5072156;28;20229;-45
2021/10/11 11:17:44;;;;;;;2.47;1.83;;;18.60;48.80;;;;;;5071194;28;20917;-46
2021/10/11 11:20:18;;;;;;;2.25;1.77;;;18.60;48.80;;;;;;5074225;28;20254;-46
2021/10/11 11:22:49;;;;;;;3.22;1.80;;;18.50;48.80;;;;;;5077480;28;20294;-44
2021/10/11 11:25:26;;;;;;;2.45;1.73;;;18.60;48.90;;;;;;5074150;28;20229;-43
2021/10/11 11:27:59;;;;;;;1.95;1.40;;;18.60;48.90;;;;;;5084042;28;20554;-43
2021/10/11 11:30:31;;;;;;;2.50;1.83;;;18.50;48.90;;;;;;5097139;27;20248;-44
2021/10/11 11:33:06;;;;;;;2.65;1.63;;;18.50;48.90;;;;;;5073488;28;20246;-43
2021/10/11 11:35:38;;;;;;;2.83;1.80;;;18.50;49.00;;;;;;5091645;28;20267;-41
2021/10/11 11:38:11;;;;;;;4.63;1.73;;;18.50;49.00;;;;;;5073467;28;20237;-41
2021/10/11 11:40:44;;;;;;;2.20;1.70;;;18.50;49.00;;;;;;5078087;28;20242;-41
2021/10/11 11:43:15;;;;;;;2.60;1.88;;;18.50;49.00;;;;;;5071348;28;20314;-43
2021/10/11 11:45:50;;;;;;;3.72;2.03;;;18.50;49.10;;;;;;5091828;28;20279;-42
2021/10/11 11:48:22;;;;;;;3.20;1.90;;;18.50;49.20;;;;;;5086336;28;21757;-42
2021/10/11 11:50:56;;;;;;;3.00;1.90;;;18.50;49.20;;;;;;5086091;28;20323;-47
2021/10/11 11:53:28;;;;;;;2.50;1.52;;;18.50;49.30;;;;;;5071859;28;20241;-45
2021/10/11 11:56:00;;;;;;;1.75;1.60;;;18.50;49.20;;;;;;5071054;28;20222;-45
2021/10/11 11:58:32;;;;;;;3.50;1.67;;;18.40;49.20;;;;;;5088278;28;20653;-46
2021/10/11 12:01:11;;;;;;;2.10;1.42;;;18.50;49.30;;;;;;5085296;28;20237;-44
2021/10/11 12:03:46;;;;;;;2.67;1.70;;;18.40;49.30;;;;;;5088903;28;20568;-50
2021/10/11 12:06:17;;;;;;;2.78;1.60;;;18.40;49.30;;;;;;5089230;28;20225;-44
2021/10/11 12:08:48;;;;;;;2.13;1.60;;;18.40;49.40;;;;;;5073765;28;20230;-52
2021/10/11 12:11:22;;;;;;;2.47;1.73;;;18.40;49.40;;;;;;5074192;28;20230;-47
2021/10/11 12:13:58;;;;;;;2.47;1.70;;;18.40;49.40;;;;;;5073634;28;20254;-47
2021/10/11 12:16:31;;;;;;;2.25;1.80;;;18.40;49.40;;;;;;5075194;28;20237;-46
2021/10/11 12:19:04;;;;;;;2.92;1.75;;;18.40;49.40;;;;;;5083537;28;20261;-49
2021/10/11 12:21:36;;;;;;;2.30;1.67;;;18.40;49.50;;;;;;5089451;28;20206;-51
2021/10/11 12:24:17;;;;;;;3.22;1.75;;;18.40;49.60;;;;;;5078212;28;20239;-50
2021/10/11 12:26:52;;;;;;;2.08;1.48;;;18.40;49.60;;;;;;5073896;28;20205;-48
2021/10/11 12:29:23;;;;;;;3.00;1.80;;;18.40;49.60;;;;;;5082466;28;20300;-47
2021/10/11 12:32:07;;;;;;;3.88;1.80;;;18.40;49.60;;;;;;5089497;28;20303;-47
2021/10/11 12:34:39;;;;;;;2.72;1.55;;;18.30;49.70;;;;;;5089297;28;20312;-48
2021/10/11 12:37:13;;;;;;;3.70;1.95;;;18.30;49.70;;;;;;5091721;28;20210;-45
2021/10/11 12:39:44;;;;;;;3.38;1.52;;;18.30;49.70;;;;;;5092840;28;20670;-49
2021/10/11 12:42:18;;;;;;;2.67;1.65;;;18.30;49.70;;;;;;5092530;28;20243;-47
2021/10/11 12:44:52;;;;;;;2.20;1.60;;;18.30;49.80;;;;;;5089116;28;20226;-48
2021/10/11 12:47:28;;;;;;;2.80;1.60;;;18.20;49.70;;;;;;5076739;28;20198;-48
2021/10/11 12:50:00;;;;;;;2.75;1.60;;;18.30;49.80;;;;;;5076502;28;20238;-50
2021/10/11 12:52:38;;;;;;;1.95;1.30;;;18.30;49.80;;;;;;5075314;28;20294;-49
2021/10/11 12:55:11;;;;;;;2.20;1.63;;;18.30;49.80;;;;;;5076505;28;20261;-51
2021/10/11 12:57:43;;;;;;;1.70;1.35;;;18.20;49.80;;;;;;5092820;28;20205;-50
2021/10/11 13:00:15;;;;;;;2.17;1.50;;;18.20;49.90;;;;;;5075353;28;20254;-50
2021/10/11 13:02:48;;;;;;;1.95;1.70;;;18.20;49.90;;;;;;5076133;28;20230;-48
2021/10/11 13:05:19;;;;;;;3.30;1.73;;;18.20;49.90;;;;;;5082487;28;20202;-43
2021/10/11 13:07:49;;;;;;;3.00;1.40;;;18.20;49.90;;;;;;5076772;28;20360;-48
2021/10/11 13:10:19;;;;;;;2.47;1.70;;;18.10;49.90;;;;;;5090253;28;20698;-48
2021/10/11 13:12:50;;;;;;;2.33;1.63;;;18.10;49.90;;;;;;5091076;28;20723;-50